sensor_id;sensor_type;location;lat;lon;timestamp;temperature;humidity
26037;DHT22;13810;48.376;10.944;2022-10-19T00:00:10;12.40;99.90
26037;DHT22;13810;48.376;10.944;2022-10-19T00:00:41;12.30;99.90
26037;DHT22;13810;48.376;10.944;2022-10-19T00:01:17;12.30;99.90
26037;DHT22;13810;48.376;10.944;2022-10-19T00:01:48;12.30;99.90
26037;DHT22;13810;48.376;10.944;2022-10-19T00:02:18;12.20;99.90
26037;DHT22;13810;48.376;10.944;2022-10-19T00:02:49;12.20;99.90
26037;DHT22;13810;48.376;10.944;2022-10-19T00:03:20;12.20;99.90
26037;DHT22;13810;48.376;10.944;2022-10-19T00:03:52;12.20;99.90
26037;DHT22;13810;48.376;10.944;2022-10-19T00:04:23;12.20;99.90
26037;DHT22;13810;48.376;10.944;2022-10-19T00:04:54;12.10;99.90
26037;DHT22;13810;48.376;10.944;2022-10-19T00:05:24;12.20;99.90
26037;DHT22;13810;48.376;10.944;2022-10-19T00:05:55;12.10;99.90
26037;DHT22;13810;48.376;10.944;2022-10-19T00:06:28;12.10;99.90
26037;DHT22;13810;48.376;10.944;2022-10-19T00:07:00;12.10;99.90
26037;DHT22;13810;48.376;10.944;2022-10-19T00:07:30;12.10;99.90
26037;DHT22;13810;48.376;10.944;2022-10-19T00:08:02;12.10;99.90
26037;DHT22;13810;48.376;10.944;2022-10-19T00:08:33;12.10;99.90
26037;DHT22;13810;48.376;10.944;2022-10-19T00:09:09;12.10;99.90
26037;DHT22;13810;48.376;10.944;2022-10-19T00:09:42;12.20;99.90
26037;DHT22;13810;48.376;10.944;2022-10-19T00:10:13;12.20;99.90
26037;DHT22;13810;48.376;10.944;2022-10-19T00:10:43;12.20;99.90
26037;DHT22;13810;48.376;10.944;2022-10-19T00:11:14;12.20;99.90
26037;DHT22;13810;48.376;10.944;2022-10-19T00:11:47;12.10;99.90
26037;DHT22;13810;48.376;10.944;2022-10-19T00:12:18;12.10;99.90
26037;DHT22;13810;48.376;10.944;2022-10-19T00:12:49;12.10;99.90
26037;DHT22;13810;48.376;10.944;2022-10-19T00:13:20;12.10;99.90
26037;DHT22;13810;48.376;10.944;2022-10-19T00:13:51;12.10;99.90
26037;DHT22;13810;48.376;10.944;2022-10-19T00:14:23;12.00;99.90
26037;DHT22;13810;48.376;10.944;2022-10-19T00:14:53;12.00;99.90
26037;DHT22;13810;48.376;10.944;2022-10-19T00:15:24;12.00;99.90
26037;DHT22;13810;48.376;10.944;2022-10-19T00:15:54;12.00;99.90
26037;DHT22;13810;48.376;10.944;2022-10-19T00:16:28;12.00;99.90
26037;DHT22;13810;48.376;10.944;2022-10-19T00:16:59;11.90;99.90
26037;DHT22;13810;48.376;10.944;2022-10-19T00:17:30;11.90;99.90
26037;DHT22;13810;48.376;10.944;2022-10-19T00:18:00;11.90;99.90
26037;DHT22;13810;48.376;10.944;2022-10-19T00:18:31;11.90;99.90
26037;DHT22;13810;48.376;10.944;2022-10-19T00:19:05;11.90;99.90
26037;DHT22;13810;48.376;10.944;2022-10-19T00:19:36;11.80;99.90
26037;DHT22;13810;48.376;10.944;2022-10-19T00:20:07;11.80;99.90
26037;DHT22;13810;48.376;10.944;2022-10-19T00:20:38;11.80;99.90
26037;DHT22;13810;48.376;10.944;2022-10-19T00:21:12;11.80;99.90
26037;DHT22;13810;48.376;10.944;2022-10-19T00:21:43;11.80;99.90
26037;DHT22;13810;48.376;10.944;2022-10-19T00:22:14;11.70;99.90
26037;DHT22;13810;48.376;10.944;2022-10-19T00:22:48;11.70;99.90
26037;DHT22;13810;48.376;10.944;2022-10-19T00:23:20;11.70;99.90
26037;DHT22;13810;48.376;10.944;2022-10-19T00:23:52;11.60;99.90
26037;DHT22;13810;48.376;10.944;2022-10-19T00:24:23;11.60;99.90
26037;DHT22;13810;48.376;10.944;2022-10-19T00:24:55;11.60;99.90
26037;DHT22;13810;48.376;10.944;2022-10-19T00:25:26;11.60;99.90
26037;DHT22;13810;48.376;10.944;2022-10-19T00:25:57;11.60;99.90
26037;DHT22;13810;48.376;10.944;2022-10-19T00:26:28;11.50;99.90
26037;DHT22;13810;48.376;10.944;2022-10-19T00:26:58;11.60;99.90
26037;DHT22;13810;48.376;10.944;2022-10-19T00:27:29;11.50;99.90
26037;DHT22;13810;48.376;10.944;2022-10-19T00:28:00;11.50;99.90
26037;DHT22;13810;48.376;10.944;2022-10-19T00:28:30;11.50;99.90
26037;DHT22;13810;48.376;10.944;2022-10-19T00:29:02;11.50;99.90
26037;DHT22;13810;48.376;10.944;2022-10-19T00:29:32;11.50;99.90
26037;DHT22;13810;48.376;10.944;2022-10-19T00:30:04;11.50;99.90
26037;DHT22;13810;48.376;10.944;2022-10-19T00:30:37;11.50;99.90
26037;DHT22;13810;48.376;10.944;2022-10-19T00:31:12;11.50;99.90
26037;DHT22;13810;48.376;10.944;2022-10-19T00:31:42;11.50;99.90
26037;DHT22;13810;48.376;10.944;2022-10-19T00:32:13;11.50;99.90
26037;DHT22;13810;48.376;10.944;2022-10-19T00:32:44;11.50;99.90
26037;DHT22;13810;48.376;10.944;2022-10-19T00:33:14;11.50;99.90
26037;DHT22;13810;48.376;10.944;2022-10-19T00:33:50;11.50;99.90
26037;DHT22;13810;48.376;10.944;2022-10-19T00:34:21;11.50;99.90
26037;DHT22;13810;48.376;10.944;2022-10-19T00:34:52;11.50;99.90
26037;DHT22;13810;48.376;10.944;2022-10-19T00:35:22;11.50;99.90
26037;DHT22;13810;48.376;10.944;2022-10-19T00:35:53;11.50;99.90
26037;DHT22;13810;48.376;10.944;2022-10-19T00:36:27;11.50;99.90
26037;DHT22;13810;48.376;10.944;2022-10-19T00:36:58;11.50;99.90
26037;DHT22;13810;48.376;10.944;2022-10-19T00:37:28;11.50;99.90
26037;DHT22;13810;48.376;10.944;2022-10-19T00:37:59;11.50;99.90
26037;DHT22;13810;48.376;10.944;2022-10-19T00:38:30;11.50;99.90
26037;DHT22;13810;48.376;10.944;2022-10-19T00:39:02;11.50;99.90
26037;DHT22;13810;48.376;10.944;2022-10-19T00:39:33;11.50;99.90
26037;DHT22;13810;48.376;10.944;2022-10-19T00:40:04;11.50;99.90
26037;DHT22;13810;48.376;10.944;2022-10-19T00:40:38;11.50;99.90
26037;DHT22;13810;48.376;10.944;2022-10-19T00:41:09;11.50;99.90
26037;DHT22;13810;48.376;10.944;2022-10-19T00:41:40;11.50;99.90
26037;DHT22;13810;48.376;10.944;2022-10-19T00:42:12;11.50;99.90
26037;DHT22;13810;48.376;10.944;2022-10-19T00:42:42;11.50;99.90
26037;DHT22;13810;48.376;10.944;2022-10-19T00:43:15;11.50;99.90
26037;DHT22;13810;48.376;10.944;2022-10-19T00:45:02;11.50;99.90
26037;DHT22;13810;48.376;10.944;2022-10-19T00:45:33;11.60;99.90
26037;DHT22;13810;48.376;10.944;2022-10-19T00:46:03;11.50;99.90
26037;DHT22;13810;48.376;10.944;2022-10-19T00:46:37;11.50;99.90
26037;DHT22;13810;48.376;10.944;2022-10-19T00:47:08;11.50;99.90
26037;DHT22;13810;48.376;10.944;2022-10-19T00:47:39;11.50;99.90
26037;DHT22;13810;48.376;10.944;2022-10-19T00:48:13;11.50;99.90
26037;DHT22;13810;48.376;10.944;2022-10-19T00:48:45;11.50;99.90
26037;DHT22;13810;48.376;10.944;2022-10-19T00:49:22;11.50;99.90
26037;DHT22;13810;48.376;10.944;2022-10-19T00:49:54;11.40;99.90
26037;DHT22;13810;48.376;10.944;2022-10-19T00:50:25;11.40;99.90
26037;DHT22;13810;48.376;10.944;2022-10-19T00:50:57;11.40;99.90
26037;DHT22;13810;48.376;10.944;2022-10-19T00:51:30;11.40;99.90
26037;DHT22;13810;48.376;10.944;2022-10-19T00:52:04;11.40;99.90
26037;DHT22;13810;48.376;10.944;2022-10-19T00:52:35;11.40;99.90
26037;DHT22;13810;48.376;10.944;2022-10-19T00:53:06;11.30;99.90
26037;DHT22;13810;48.376;10.944;2022-10-19T00:53:37;11.30;99.90
26037;DHT22;13810;48.376;10.944;2022-10-19T00:54:09;11.30;99.90
26037;DHT22;13810;48.376;10.944;2022-10-19T00:54:43;11.30;99.90
26037;DHT22;13810;48.376;10.944;2022-10-19T00:55:13;11.30;99.90
26037;DHT22;13810;48.376;10.944;2022-10-19T00:55:45;11.30;99.90
26037;DHT22;13810;48.376;10.944;2022-10-19T00:56:16;11.30;99.90
26037;DHT22;13810;48.376;10.944;2022-10-19T00:56:49;11.30;99.90
26037;DHT22;13810;48.376;10.944;2022-10-19T00:57:21;11.20;99.90
26037;DHT22;13810;48.376;10.944;2022-10-19T00:57:52;11.20;99.90
26037;DHT22;13810;48.376;10.944;2022-10-19T00:58:23;11.20;99.90
26037;DHT22;13810;48.376;10.944;2022-10-19T00:58:54;11.20;99.90
26037;DHT22;13810;48.376;10.944;2022-10-19T00:59:27;11.20;99.90
26037;DHT22;13810;48.376;10.944;2022-10-19T01:00:03;11.20;99.90
26037;DHT22;13810;48.376;10.944;2022-10-19T01:00:34;11.20;99.90
26037;DHT22;13810;48.376;10.944;2022-10-19T01:01:08;11.20;99.90
26037;DHT22;13810;48.376;10.944;2022-10-19T01:01:42;11.20;99.90
26037;DHT22;13810;48.376;10.944;2022-10-19T01:02:13;11.10;99.90
26037;DHT22;13810;48.376;10.944;2022-10-19T01:02:45;11.20;99.90
26037;DHT22;13810;48.376;10.944;2022-10-19T01:03:15;11.20;99.90
26037;DHT22;13810;48.376;10.944;2022-10-19T01:03:46;11.20;99.90
26037;DHT22;13810;48.376;10.944;2022-10-19T01:04:19;11.10;99.90
26037;DHT22;13810;48.376;10.944;2022-10-19T01:04:51;11.20;99.90
26037;DHT22;13810;48.376;10.944;2022-10-19T01:05:22;11.10;99.90
26037;DHT22;13810;48.376;10.944;2022-10-19T01:05:53;11.10;99.90
26037;DHT22;13810;48.376;10.944;2022-10-19T01:06:25;11.10;99.90
26037;DHT22;13810;48.376;10.944;2022-10-19T01:06:57;11.20;99.90
26037;DHT22;13810;48.376;10.944;2022-10-19T01:07:28;11.10;99.90
26037;DHT22;13810;48.376;10.944;2022-10-19T01:07:59;11.10;99.90
26037;DHT22;13810;48.376;10.944;2022-10-19T01:08:31;11.20;99.90
26037;DHT22;13810;48.376;10.944;2022-10-19T01:09:02;11.20;99.90
26037;DHT22;13810;48.376;10.944;2022-10-19T01:09:33;11.10;99.90
26037;DHT22;13810;48.376;10.944;2022-10-19T01:10:04;11.10;99.90
26037;DHT22;13810;48.376;10.944;2022-10-19T01:10:51;11.10;99.90
26037;DHT22;13810;48.376;10.944;2022-10-19T01:16:28;11.20;99.90
26037;DHT22;13810;48.376;10.944;2022-10-19T01:18:25;11.10;99.90
26037;DHT22;13810;48.376;10.944;2022-10-19T01:21:20;11.10;99.90
26037;DHT22;13810;48.376;10.944;2022-10-19T01:25:22;11.10;99.90
26037;DHT22;13810;48.376;10.944;2022-10-19T01:26:09;11.10;99.90
26037;DHT22;13810;48.376;10.944;2022-10-19T01:27:52;11.00;99.90
26037;DHT22;13810;48.376;10.944;2022-10-19T01:31:43;10.80;99.90
26037;DHT22;13810;48.376;10.944;2022-10-19T01:32:22;10.80;99.90
26037;DHT22;13810;48.376;10.944;2022-10-19T01:33:23;10.80;99.90
26037;DHT22;13810;48.376;10.944;2022-10-19T01:38:36;10.80;99.90
26037;DHT22;13810;48.376;10.944;2022-10-19T01:39:57;10.70;99.90
26037;DHT22;13810;48.376;10.944;2022-10-19T01:40:43;10.80;99.90
26037;DHT22;13810;48.376;10.944;2022-10-19T01:42:20;10.80;99.90
26037;DHT22;13810;48.376;10.944;2022-10-19T01:43:03;10.80;99.90
26037;DHT22;13810;48.376;10.944;2022-10-19T01:45:03;10.80;99.90
26037;DHT22;13810;48.376;10.944;2022-10-19T01:45:46;10.80;99.90
26037;DHT22;13810;48.376;10.944;2022-10-19T01:46:36;10.80;99.90
26037;DHT22;13810;48.376;10.944;2022-10-19T01:47:13;10.80;99.90
26037;DHT22;13810;48.376;10.944;2022-10-19T01:47:54;10.80;99.90
26037;DHT22;13810;48.376;10.944;2022-10-19T01:48:31;10.80;99.90
26037;DHT22;13810;48.376;10.944;2022-10-19T01:49:09;10.90;99.90
26037;DHT22;13810;48.376;10.944;2022-10-19T01:49:46;10.80;99.90
26037;DHT22;13810;48.376;10.944;2022-10-19T01:50:25;10.90;99.90
26037;DHT22;13810;48.376;10.944;2022-10-19T01:51:00;10.80;99.90
26037;DHT22;13810;48.376;10.944;2022-10-19T01:51:36;10.80;99.90
26037;DHT22;13810;48.376;10.944;2022-10-19T01:52:08;10.80;99.90
26037;DHT22;13810;48.376;10.944;2022-10-19T01:52:42;10.80;99.90
26037;DHT22;13810;48.376;10.944;2022-10-19T01:53:13;10.80;99.90
26037;DHT22;13810;48.376;10.944;2022-10-19T01:53:50;10.80;99.90
26037;DHT22;13810;48.376;10.944;2022-10-19T01:54:22;10.80;99.90
26037;DHT22;13810;48.376;10.944;2022-10-19T01:54:57;10.80;99.90
26037;DHT22;13810;48.376;10.944;2022-10-19T01:55:30;10.90;99.90
26037;DHT22;13810;48.376;10.944;2022-10-19T01:56:02;10.80;99.90
26037;DHT22;13810;48.376;10.944;2022-10-19T01:56:36;10.80;99.90
26037;DHT22;13810;48.376;10.944;2022-10-19T01:57:08;10.90;99.90
26037;DHT22;13810;48.376;10.944;2022-10-19T01:57:45;10.90;99.90
26037;DHT22;13810;48.376;10.944;2022-10-19T01:58:26;10.90;99.90
26037;DHT22;13810;48.376;10.944;2022-10-19T01:58:59;10.90;99.90
26037;DHT22;13810;48.376;10.944;2022-10-19T01:59:32;10.90;99.90
26037;DHT22;13810;48.376;10.944;2022-10-19T02:00:05;10.90;99.90
26037;DHT22;13810;48.376;10.944;2022-10-19T02:00:40;10.90;99.90
26037;DHT22;13810;48.376;10.944;2022-10-19T02:01:16;10.90;99.90
26037;DHT22;13810;48.376;10.944;2022-10-19T02:01:48;11.00;99.90
26037;DHT22;13810;48.376;10.944;2022-10-19T02:02:21;11.00;99.90
26037;DHT22;13810;48.376;10.944;2022-10-19T02:02:53;11.00;99.90
26037;DHT22;13810;48.376;10.944;2022-10-19T02:03:26;11.00;99.90
26037;DHT22;13810;48.376;10.944;2022-10-19T02:03:57;11.00;99.90
26037;DHT22;13810;48.376;10.944;2022-10-19T02:04:29;11.00;99.90
26037;DHT22;13810;48.376;10.944;2022-10-19T02:05:01;11.00;99.90
26037;DHT22;13810;48.376;10.944;2022-10-19T02:05:33;11.00;99.90
26037;DHT22;13810;48.376;10.944;2022-10-19T02:06:06;11.00;99.90
26037;DHT22;13810;48.376;10.944;2022-10-19T02:06:38;11.00;99.90
26037;DHT22;13810;48.376;10.944;2022-10-19T02:07:10;11.00;99.90
26037;DHT22;13810;48.376;10.944;2022-10-19T02:07:44;11.00;99.90
26037;DHT22;13810;48.376;10.944;2022-10-19T02:08:23;11.00;99.90
26037;DHT22;13810;48.376;10.944;2022-10-19T02:08:55;11.00;99.90
26037;DHT22;13810;48.376;10.944;2022-10-19T02:09:26;11.00;99.90
26037;DHT22;13810;48.376;10.944;2022-10-19T02:09:57;11.00;99.90
26037;DHT22;13810;48.376;10.944;2022-10-19T02:10:30;11.00;99.90
26037;DHT22;13810;48.376;10.944;2022-10-19T02:11:03;11.10;99.90
26037;DHT22;13810;48.376;10.944;2022-10-19T02:11:36;11.10;99.90
26037;DHT22;13810;48.376;10.944;2022-10-19T02:12:09;11.10;99.90
26037;DHT22;13810;48.376;10.944;2022-10-19T02:12:41;11.10;99.90
26037;DHT22;13810;48.376;10.944;2022-10-19T02:13:14;11.10;99.90
26037;DHT22;13810;48.376;10.944;2022-10-19T02:13:49;11.10;99.90
26037;DHT22;13810;48.376;10.944;2022-10-19T02:14:25;11.10;99.90
26037;DHT22;13810;48.376;10.944;2022-10-19T02:15:00;11.10;99.90
26037;DHT22;13810;48.376;10.944;2022-10-19T02:15:35;11.20;99.90
26037;DHT22;13810;48.376;10.944;2022-10-19T02:16:12;11.20;99.90
26037;DHT22;13810;48.376;10.944;2022-10-19T02:16:58;11.20;99.90
26037;DHT22;13810;48.376;10.944;2022-10-19T02:17:37;11.20;99.90
26037;DHT22;13810;48.376;10.944;2022-10-19T02:18:09;11.20;99.90
26037;DHT22;13810;48.376;10.944;2022-10-19T02:18:45;11.20;99.90
26037;DHT22;13810;48.376;10.944;2022-10-19T02:19:17;11.20;99.90
26037;DHT22;13810;48.376;10.944;2022-10-19T02:19:48;11.20;99.90
26037;DHT22;13810;48.376;10.944;2022-10-19T02:20:20;11.20;99.90
26037;DHT22;13810;48.376;10.944;2022-10-19T02:20:51;11.30;99.90
26037;DHT22;13810;48.376;10.944;2022-10-19T02:21:21;11.30;99.90
26037;DHT22;13810;48.376;10.944;2022-10-19T02:21:53;11.30;99.90
26037;DHT22;13810;48.376;10.944;2022-10-19T02:22:24;11.30;99.90
26037;DHT22;13810;48.376;10.944;2022-10-19T02:22:54;11.30;99.90
26037;DHT22;13810;48.376;10.944;2022-10-19T02:23:25;11.40;99.90
26037;DHT22;13810;48.376;10.944;2022-10-19T02:23:57;11.40;99.90
26037;DHT22;13810;48.376;10.944;2022-10-19T02:24:27;11.40;99.90
26037;DHT22;13810;48.376;10.944;2022-10-19T02:24:58;11.40;99.90
26037;DHT22;13810;48.376;10.944;2022-10-19T02:25:29;11.40;99.90
26037;DHT22;13810;48.376;10.944;2022-10-19T02:26:00;11.40;99.90
26037;DHT22;13810;48.376;10.944;2022-10-19T02:26:31;11.40;99.90
26037;DHT22;13810;48.376;10.944;2022-10-19T02:27:04;11.40;99.90
26037;DHT22;13810;48.376;10.944;2022-10-19T02:27:37;11.40;99.90
26037;DHT22;13810;48.376;10.944;2022-10-19T02:28:11;11.50;99.90
26037;DHT22;13810;48.376;10.944;2022-10-19T02:28:42;11.50;99.90
26037;DHT22;13810;48.376;10.944;2022-10-19T02:29:14;11.50;99.90
26037;DHT22;13810;48.376;10.944;2022-10-19T02:29:45;11.50;99.90
26037;DHT22;13810;48.376;10.944;2022-10-19T02:30:17;11.50;99.90
26037;DHT22;13810;48.376;10.944;2022-10-19T02:30:49;11.50;99.90
26037;DHT22;13810;48.376;10.944;2022-10-19T02:31:20;11.60;99.90
26037;DHT22;13810;48.376;10.944;2022-10-19T02:31:51;11.60;99.90
26037;DHT22;13810;48.376;10.944;2022-10-19T02:32:22;11.60;99.90
26037;DHT22;13810;48.376;10.944;2022-10-19T02:32:53;11.60;99.90
26037;DHT22;13810;48.376;10.944;2022-10-19T02:33:24;11.60;99.90
26037;DHT22;13810;48.376;10.944;2022-10-19T02:33:55;11.60;99.90
26037;DHT22;13810;48.376;10.944;2022-10-19T02:34:26;11.60;99.90
26037;DHT22;13810;48.376;10.944;2022-10-19T02:34:57;11.60;99.90
26037;DHT22;13810;48.376;10.944;2022-10-19T02:35:27;11.70;99.90
26037;DHT22;13810;48.376;10.944;2022-10-19T02:35:59;11.70;99.90
26037;DHT22;13810;48.376;10.944;2022-10-19T02:36:30;11.70;99.90
26037;DHT22;13810;48.376;10.944;2022-10-19T02:37:00;11.70;99.90
26037;DHT22;13810;48.376;10.944;2022-10-19T02:37:31;11.70;99.90
26037;DHT22;13810;48.376;10.944;2022-10-19T02:38:03;11.70;99.90
26037;DHT22;13810;48.376;10.944;2022-10-19T02:38:34;11.70;99.90
26037;DHT22;13810;48.376;10.944;2022-10-19T02:39:05;11.70;99.90
26037;DHT22;13810;48.376;10.944;2022-10-19T02:39:38;11.80;99.90
26037;DHT22;13810;48.376;10.944;2022-10-19T02:40:09;11.80;99.90
26037;DHT22;13810;48.376;10.944;2022-10-19T02:40:45;11.80;99.90
26037;DHT22;13810;48.376;10.944;2022-10-19T02:41:26;11.80;99.90
26037;DHT22;13810;48.376;10.944;2022-10-19T02:42:14;11.80;99.90
26037;DHT22;13810;48.376;10.944;2022-10-19T02:42:47;11.80;99.90
26037;DHT22;13810;48.376;10.944;2022-10-19T02:43:20;11.80;99.90
26037;DHT22;13810;48.376;10.944;2022-10-19T02:43:57;11.90;99.90
26037;DHT22;13810;48.376;10.944;2022-10-19T02:44:43;11.90;99.90
26037;DHT22;13810;48.376;10.944;2022-10-19T02:45:22;11.90;99.90
26037;DHT22;13810;48.376;10.944;2022-10-19T02:46:00;11.90;99.90
26037;DHT22;13810;48.376;10.944;2022-10-19T02:46:36;11.90;99.90
26037;DHT22;13810;48.376;10.944;2022-10-19T02:47:14;11.90;99.90
26037;DHT22;13810;48.376;10.944;2022-10-19T02:47:57;11.90;99.90
26037;DHT22;13810;48.376;10.944;2022-10-19T02:48:31;11.90;99.90
26037;DHT22;13810;48.376;10.944;2022-10-19T02:49:03;11.90;99.90
26037;DHT22;13810;48.376;10.944;2022-10-19T02:49:36;11.90;99.90
26037;DHT22;13810;48.376;10.944;2022-10-19T02:50:08;12.00;99.90
26037;DHT22;13810;48.376;10.944;2022-10-19T02:50:43;12.00;99.90
26037;DHT22;13810;48.376;10.944;2022-10-19T02:51:56;12.00;99.90
26037;DHT22;13810;48.376;10.944;2022-10-19T02:52:27;12.00;99.90
26037;DHT22;13810;48.376;10.944;2022-10-19T02:52:58;12.00;99.90
26037;DHT22;13810;48.376;10.944;2022-10-19T02:53:29;12.10;99.90
26037;DHT22;13810;48.376;10.944;2022-10-19T02:54:00;12.00;99.90
26037;DHT22;13810;48.376;10.944;2022-10-19T02:54:30;12.00;99.90
26037;DHT22;13810;48.376;10.944;2022-10-19T02:55:01;12.00;99.90
26037;DHT22;13810;48.376;10.944;2022-10-19T02:55:32;12.10;99.90
26037;DHT22;13810;48.376;10.944;2022-10-19T02:56:03;12.10;99.90
26037;DHT22;13810;48.376;10.944;2022-10-19T02:56:34;12.10;99.90
26037;DHT22;13810;48.376;10.944;2022-10-19T02:57:19;12.10;99.90
26037;DHT22;13810;48.376;10.944;2022-10-19T02:57:50;12.10;99.90
26037;DHT22;13810;48.376;10.944;2022-10-19T02:58:20;12.10;99.90
26037;DHT22;13810;48.376;10.944;2022-10-19T02:58:52;12.10;99.90
26037;DHT22;13810;48.376;10.944;2022-10-19T02:59:23;12.10;99.90
26037;DHT22;13810;48.376;10.944;2022-10-19T02:59:54;12.10;99.90
26037;DHT22;13810;48.376;10.944;2022-10-19T03:00:24;12.10;99.90
26037;DHT22;13810;48.376;10.944;2022-10-19T03:00:55;12.10;99.90
26037;DHT22;13810;48.376;10.944;2022-10-19T03:01:26;12.10;99.90
26037;DHT22;13810;48.376;10.944;2022-10-19T03:01:57;12.10;99.90
26037;DHT22;13810;48.376;10.944;2022-10-19T03:02:27;12.10;99.90
26037;DHT22;13810;48.376;10.944;2022-10-19T03:02:59;12.10;99.90
26037;DHT22;13810;48.376;10.944;2022-10-19T03:03:32;12.10;99.90
26037;DHT22;13810;48.376;10.944;2022-10-19T03:04:02;12.10;99.90
26037;DHT22;13810;48.376;10.944;2022-10-19T03:04:33;12.10;99.90
26037;DHT22;13810;48.376;10.944;2022-10-19T03:05:04;12.10;99.90
26037;DHT22;13810;48.376;10.944;2022-10-19T03:05:35;12.10;99.90
26037;DHT22;13810;48.376;10.944;2022-10-19T03:06:06;12.10;99.90
26037;DHT22;13810;48.376;10.944;2022-10-19T03:06:37;12.10;99.90
26037;DHT22;13810;48.376;10.944;2022-10-19T03:07:09;12.10;99.90
26037;DHT22;13810;48.376;10.944;2022-10-19T03:07:40;12.10;99.90
26037;DHT22;13810;48.376;10.944;2022-10-19T03:08:11;12.10;99.90
26037;DHT22;13810;48.376;10.944;2022-10-19T03:08:42;12.00;99.90
26037;DHT22;13810;48.376;10.944;2022-10-19T03:09:13;12.00;99.90
26037;DHT22;13810;48.376;10.944;2022-10-19T03:09:44;12.00;99.90
26037;DHT22;13810;48.376;10.944;2022-10-19T03:10:15;12.00;99.90
26037;DHT22;13810;48.376;10.944;2022-10-19T03:10:45;12.10;99.90
26037;DHT22;13810;48.376;10.944;2022-10-19T03:11:16;12.10;99.90
26037;DHT22;13810;48.376;10.944;2022-10-19T03:11:47;12.00;99.90
26037;DHT22;13810;48.376;10.944;2022-10-19T03:12:17;12.10;99.90
26037;DHT22;13810;48.376;10.944;2022-10-19T03:12:48;12.10;99.90
26037;DHT22;13810;48.376;10.944;2022-10-19T03:13:19;12.10;99.90
26037;DHT22;13810;48.376;10.944;2022-10-19T03:13:49;12.10;99.90
26037;DHT22;13810;48.376;10.944;2022-10-19T03:14:20;12.10;99.90
26037;DHT22;13810;48.376;10.944;2022-10-19T03:14:51;12.10;99.90
26037;DHT22;13810;48.376;10.944;2022-10-19T03:15:21;12.10;99.90
26037;DHT22;13810;48.376;10.944;2022-10-19T03:15:54;12.10;99.90
26037;DHT22;13810;48.376;10.944;2022-10-19T03:16:24;12.10;99.90
26037;DHT22;13810;48.376;10.944;2022-10-19T03:16:55;12.10;99.90
26037;DHT22;13810;48.376;10.944;2022-10-19T03:17:26;12.10;99.90
26037;DHT22;13810;48.376;10.944;2022-10-19T03:17:56;12.10;99.90
26037;DHT22;13810;48.376;10.944;2022-10-19T03:18:27;12.10;99.90
26037;DHT22;13810;48.376;10.944;2022-10-19T03:18:57;12.10;99.90
26037;DHT22;13810;48.376;10.944;2022-10-19T03:19:28;12.10;99.90
26037;DHT22;13810;48.376;10.944;2022-10-19T03:19:59;12.10;99.90
26037;DHT22;13810;48.376;10.944;2022-10-19T03:20:29;12.10;99.90
26037;DHT22;13810;48.376;10.944;2022-10-19T03:21:02;12.10;99.90
26037;DHT22;13810;48.376;10.944;2022-10-19T03:21:33;12.10;99.90
26037;DHT22;13810;48.376;10.944;2022-10-19T03:22:04;12.10;99.90
26037;DHT22;13810;48.376;10.944;2022-10-19T03:22:35;12.10;99.90
26037;DHT22;13810;48.376;10.944;2022-10-19T03:23:05;12.10;99.90
26037;DHT22;13810;48.376;10.944;2022-10-19T03:23:37;12.20;99.90
26037;DHT22;13810;48.376;10.944;2022-10-19T03:24:08;12.20;99.90
26037;DHT22;13810;48.376;10.944;2022-10-19T03:24:39;12.20;99.90
26037;DHT22;13810;48.376;10.944;2022-10-19T03:25:09;12.20;99.90
26037;DHT22;13810;48.376;10.944;2022-10-19T03:25:40;12.20;99.90
26037;DHT22;13810;48.376;10.944;2022-10-19T03:26:15;12.20;99.90
26037;DHT22;13810;48.376;10.944;2022-10-19T03:26:46;12.20;99.90
26037;DHT22;13810;48.376;10.944;2022-10-19T03:27:16;12.20;99.90
26037;DHT22;13810;48.376;10.944;2022-10-19T03:27:47;12.20;99.90
26037;DHT22;13810;48.376;10.944;2022-10-19T03:28:18;12.20;99.90
26037;DHT22;13810;48.376;10.944;2022-10-19T03:28:48;12.20;99.90
26037;DHT22;13810;48.376;10.944;2022-10-19T03:29:19;12.20;99.90
26037;DHT22;13810;48.376;10.944;2022-10-19T03:29:49;12.30;99.90
26037;DHT22;13810;48.376;10.944;2022-10-19T03:30:20;12.30;99.90
26037;DHT22;13810;48.376;10.944;2022-10-19T03:30:51;12.30;99.90
26037;DHT22;13810;48.376;10.944;2022-10-19T03:31:21;12.30;99.90
26037;DHT22;13810;48.376;10.944;2022-10-19T03:31:52;12.30;99.90
26037;DHT22;13810;48.376;10.944;2022-10-19T03:32:23;12.30;99.90
26037;DHT22;13810;48.376;10.944;2022-10-19T03:32:53;12.30;99.90
26037;DHT22;13810;48.376;10.944;2022-10-19T03:33:24;12.30;99.90
26037;DHT22;13810;48.376;10.944;2022-10-19T03:33:55;12.30;99.90
26037;DHT22;13810;48.376;10.944;2022-10-19T03:34:25;12.40;99.90
26037;DHT22;13810;48.376;10.944;2022-10-19T03:34:56;12.30;99.90
26037;DHT22;13810;48.376;10.944;2022-10-19T03:35:26;12.30;99.90
26037;DHT22;13810;48.376;10.944;2022-10-19T03:36:26;12.30;99.90
26037;DHT22;13810;48.376;10.944;2022-10-19T03:36:56;12.40;99.90
26037;DHT22;13810;48.376;10.944;2022-10-19T03:37:28;12.40;99.90
26037;DHT22;13810;48.376;10.944;2022-10-19T03:37:59;12.40;99.90
26037;DHT22;13810;48.376;10.944;2022-10-19T03:38:29;12.40;99.90
26037;DHT22;13810;48.376;10.944;2022-10-19T03:39:02;12.40;99.90
26037;DHT22;13810;48.376;10.944;2022-10-19T03:39:34;12.40;99.90
26037;DHT22;13810;48.376;10.944;2022-10-19T03:40:05;12.40;99.90
26037;DHT22;13810;48.376;10.944;2022-10-19T03:40:35;12.40;99.90
26037;DHT22;13810;48.376;10.944;2022-10-19T03:41:07;12.40;99.90
26037;DHT22;13810;48.376;10.944;2022-10-19T03:41:38;12.40;99.90
26037;DHT22;13810;48.376;10.944;2022-10-19T03:42:08;12.40;99.90
26037;DHT22;13810;48.376;10.944;2022-10-19T03:42:39;12.40;99.90
26037;DHT22;13810;48.376;10.944;2022-10-19T03:43:10;12.40;99.90
26037;DHT22;13810;48.376;10.944;2022-10-19T03:43:40;12.40;99.90
26037;DHT22;13810;48.376;10.944;2022-10-19T03:44:11;12.40;99.90
26037;DHT22;13810;48.376;10.944;2022-10-19T03:44:42;12.40;99.90
26037;DHT22;13810;48.376;10.944;2022-10-19T03:45:12;12.40;99.90
26037;DHT22;13810;48.376;10.944;2022-10-19T03:45:45;12.40;99.90
26037;DHT22;13810;48.376;10.944;2022-10-19T03:46:17;12.50;99.90
26037;DHT22;13810;48.376;10.944;2022-10-19T03:46:48;12.40;99.90
26037;DHT22;13810;48.376;10.944;2022-10-19T03:47:18;12.40;99.90
26037;DHT22;13810;48.376;10.944;2022-10-19T03:47:49;12.40;99.90
26037;DHT22;13810;48.376;10.944;2022-10-19T03:48:20;12.50;99.90
26037;DHT22;13810;48.376;10.944;2022-10-19T03:48:51;12.50;99.90